Flight Track Log - Related Links

Times and Time Zones

All times are in EDT time to prevent confusion due to time zone crossing. See the AAL1459 flight status page for this flight to view local times or setup timezone preferences in your user account.

Time Position Orientation Groundspeed Altitude Reporting Facility
EDT Latitude Longitude Course Direction KTS MPH feet Rate Location/Type
Mon 07:28:27 PM 41.9380 -87.9240 250° West 161 185 2,200  Level FlightAware ADS-B
Mon 07:28:39 PM 41.9370 -87.9360 264° West 172 198 2,400 1,200 Climbing FlightAware ADS-B
Mon 07:28:57 PM 41.9360 -87.9580 267° West 198 228 2,800 1,304 Climbing FlightAware ADS-B
Mon 07:29:25 PM 41.9350 -87.9970 268° West 243 280 3,400 2,206 Climbing FlightAware ADS-B
Mon 07:30:05 PM 41.9410 -88.0570 278° West 253 291 5,300 3,000 Climbing FlightAware ADS-B
Mon 07:30:35 PM 41.9520 -88.1020 288° West 254 292 6,900 3,125 Climbing FlightAware ADS-B
Mon 07:30:53 PM 41.9570 -88.1300 284° West 255 293 7,800 2,615 Climbing FlightAware ADS-B
Mon 07:31:14 PM 41.9530 -88.1600 260° West 262 302 8,600 2,667 Climbing FlightAware ADS-B
Mon 07:31:38 PM 41.9500 -88.1980 264° West 263 303 9,800 2,261 Climbing FlightAware ADS-B
Mon 07:32:23 PM 41.9440 -88.2740 264° West 297 342 11,200 1,553 Climbing FlightAware ADS-B
Mon 07:33:03 PM 41.9280 -88.3570 255° West 343 395 12,000 1,765 Climbing FlightAware ADS-B
Mon 07:33:48 PM 41.9100 -88.4500 255° West 357 411 13,700 2,200 Climbing FlightAware ADS-B
Mon 07:34:33 PM 41.8910 -88.5460 255° West 371 427 15,300 2,122 Climbing FlightAware ADS-B
Mon 07:35:10 PM 41.8730 -88.6310 254° West 384 442 16,600 2,096 Climbing FlightAware ADS-B
Mon 07:35:56 PM 41.8530 -88.7350 256° West 390 449 18,200 2,207 Climbing FlightAware ADS-B
Mon 07:36:37 PM 41.8330 -88.8340 255° West 393 452 19,800 2,104 Climbing FlightAware ADS-B
Mon 07:37:13 PM 41.8230 -88.9240 262° West 399 459 20,900 1,714 Climbing FlightAware ADS-B
Mon 07:38:01 PM 41.8090 -89.0420 261° West 411 473 22,200 1,630 Climbing FlightAware ADS-B
Mon 07:38:45 PM 41.7960 -89.1490 261° West 416 479 23,400 1,643 Climbing FlightAware ADS-B
Mon 07:39:25 PM 41.7840 -89.2540 261° West 421 484 24,500 1,500 Climbing FlightAware ADS-B
Mon 07:40:09 PM 41.7710 -89.3690 261° West 429 494 25,500 1,421 Climbing FlightAware ADS-B
Mon 07:40:41 PM 41.7620 -89.4540 262° West 433 498 26,300 1,342 Climbing FlightAware ADS-B
Mon 07:41:25 PM 41.7500 -89.5710 262° West 438 504 27,200 1,200 Climbing FlightAware ADS-B
Mon 07:42:06 PM 41.7390 -89.6820 262° West 444 511 28,000 1,171 Climbing FlightAware ADS-B
Mon 07:42:47 PM 41.7270 -89.7960 262° West 449 517 28,800 1,200 Climbing FlightAware ADS-B
Mon 07:43:31 PM 41.7140 -89.9170 262° West 452 520 29,700 1,500 Climbing FlightAware ADS-B
Mon 07:44:11 PM 41.7020 -90.0260 262° West 443 510 30,900 1,714 Climbing FlightAware ADS-B
Mon 07:44:55 PM 41.6890 -90.1460 262° West 435 501 32,100 1,714 Climbing FlightAware ADS-B
Mon 07:45:35 PM 41.6770 -90.2520 261° West 424 488 33,300 1,579 Climbing FlightAware ADS-B
Mon 07:46:11 PM 41.6670 -90.3440 262° West 419 482 34,100 1,000 Climbing FlightAware ADS-B
Mon 07:46:59 PM 41.6530 -90.4660 261° West 424 488 34,700 750 Climbing FlightAware ADS-B
Mon 07:47:39 PM 41.6410 -90.5720 261° West 425 489 35,200 907 Climbing FlightAware ADS-B
Mon 07:48:25 PM 41.6280 -90.6920 262° West 424 488 36,000 558 Climbing FlightAware ADS-B
Mon 07:49:05 PM 41.6160 -90.7950 261° West 425 489 36,000  Level FlightAware ADS-B
Mon 07:49:38 PM 41.6070 -90.8720 261° West 424 488 36,000  Level FlightAware ADS-B
Mon 07:50:17 PM 41.5950 -90.9740 261° West 424 488 36,000  Level FlightAware ADS-B
Mon 07:51:03 PM 41.5810 -91.0960 261° West 423 487 36,000  Level FlightAware ADS-B
Mon 07:51:43 PM 41.5690 -91.1960 261° West 421 484 36,000  Level FlightAware ADS-B
Mon 07:52:27 PM 41.5560 -91.3120 262° West 419 482 36,000  Level FlightAware ADS-B
Mon 07:53:23 PM 41.5380 -91.4540 260° West 419 482 36,000  Level FlightAware ADS-B
Mon 07:54:09 PM 41.5240 -91.5710 261° West 419 482 36,000  Level FlightAware ADS-B
Mon 07:54:59 PM 41.5150 -91.7020 265° West 419 482 36,000  Level FlightAware ADS-B
Mon 07:55:39 PM 41.5100 -91.8020 266° West 419 482 36,000  Level FlightAware ADS-B
Mon 07:56:15 PM 41.5050 -91.8980 266° West 419 482 36,000  Level FlightAware ADS-B
Mon 07:56:55 PM 41.5000 -91.9980 266° West 419 482 36,000  Level FlightAware ADS-B
Mon 07:57:49 PM 41.5010 -92.1350 271° West 419 482 36,000  Level FlightAware ADS-B
Mon 07:58:28 PM 41.5020 -92.2320 271° West 420 483 36,000  Level FlightAware ADS-B
Mon 07:59:03 PM 41.5020 -92.3220 270° West 422 486 36,000  Level FlightAware ADS-B
Mon 07:59:51 PM 41.5030 -92.4530 271° West 423 487 36,000  Level FlightAware ADS-B
Mon 08:00:34 PM 41.5030 -92.5680 270° West 423 487 36,000  Level FlightAware ADS-B
Mon 08:01:16 PM 41.5040 -92.6750 271° West 423 487 36,000  Level FlightAware ADS-B
Mon 08:01:56 PM 41.5040 -92.7810 270° West 424 488 36,000  Level FlightAware ADS-B
Mon 08:02:38 PM 41.5040 -92.8900 270° West 423 487 36,000  Level FlightAware ADS-B
Mon 08:03:27 PM 41.5040 -93.0160 270° West 423 487 36,000  Level FlightAware ADS-B
Mon 08:04:08 PM 41.5042 -93.1267 270° West 423 487 36,000  Level FlightAware ADS-B
Mon 08:04:39 PM 41.5042 -93.2056 270° West 424 488 36,000  Level FlightAware ADS-B
Mon 08:05:09 PM 41.5040 -93.2847 270° West 423 487 36,000  Level FlightAware ADS-B
Mon 08:05:39 PM 41.5037 -93.3628 270° West 424 488 36,000  Level FlightAware ADS-B
Mon 08:06:10 PM 41.5034 -93.4423 270° West 423 487 36,000  Level FlightAware ADS-B
Mon 08:06:40 PM 41.5030 -93.5212 270° West 424 488 36,000  Level FlightAware ADS-B
Mon 08:07:11 PM 41.5028 -93.6007 270° West 424 488 36,000  Level FlightAware ADS-B
Mon 08:07:41 PM 41.5023 -93.6792 270° West 424 488 36,000  Level FlightAware ADS-B
Mon 08:08:11 PM 41.5019 -93.7579 270° West 424 488 36,000  Level FlightAware ADS-B
Mon 08:08:41 PM 41.5015 -93.8368 270° West 424 488 36,000  Level FlightAware ADS-B
Mon 08:09:13 PM 41.5008 -93.9202 269° West 424 488 36,000  Level FlightAware ADS-B
Mon 08:09:38 PM 41.5000 -93.9845 269° West 424 488 36,000  Level FlightAware ADS-B
Mon 08:09:48 PM 41.4985 -94.0120 266° West 424 488 36,000  Level FlightAware ADS-B
Mon 08:10:19 PM 41.4902 -94.0902 262° West 422 486 36,000  Level FlightAware ADS-B
Mon 08:10:50 PM 41.4816 -94.1692 262° West 423 487 36,000  Level FlightAware ADS-B
Mon 08:11:21 PM 41.4727 -94.2511 262° West 423 487 36,000  Level FlightAware ADS-B
Mon 08:11:54 PM 41.4670 -94.2940 260° West 423 487 36,000  Level FlightAware ADS-B
Mon 08:12:35 PM 41.4519 -94.4424 262° West 428 493 36,000  Level FlightAware ADS-B
Mon 08:13:06 PM 41.4431 -94.5212 262° West 430 495 36,000  Level FlightAware ADS-B
Mon 08:13:36 PM 41.4340 -94.6020 261° West 433 498 36,000  Level FlightAware ADS-B
Mon 08:14:06 PM 41.4251 -94.6815 262° West 434 499 36,000  Level FlightAware ADS-B
Mon 08:14:37 PM 41.4159 -94.7628 261° West 434 499 36,000  Level FlightAware ADS-B
Mon 08:15:08 PM 41.4067 -94.8427 261° West 434 499 36,000  Level FlightAware ADS-B
Mon 08:15:38 PM 41.3974 -94.9235 261° West 436 502 36,000  Level FlightAware ADS-B
Mon 08:16:09 PM 41.3881 -95.0043 261° West 436 502 36,000  Level FlightAware ADS-B
Mon 08:16:39 PM 41.3788 -95.0848 261° West 437 503 36,000  Level FlightAware ADS-B
Mon 08:17:10 PM 41.3696 -95.1648 261° West 437 503 36,000  Level FlightAware ADS-B
Mon 08:17:40 PM 41.3602 -95.2446 261° West 437 503 36,000  Level FlightAware ADS-B
Mon 08:18:10 PM 41.3505 -95.3252 261° West 436 502 36,000  Level FlightAware ADS-B
Mon 08:18:40 PM 41.3409 -95.4048 261° West 434 499 36,000  Level FlightAware ADS-B
Mon 08:19:11 PM 41.3315 -95.4845 261° West 433 498 36,000  Level FlightAware ADS-B
Mon 08:19:41 PM 41.3217 -95.5648 261° West 434 499 36,000  Level FlightAware ADS-B
Mon 08:20:11 PM 41.3122 -95.6429 261° West 433 498 36,000  Level FlightAware ADS-B
Mon 08:20:41 PM 41.3026 -95.7224 261° West 431 496 36,000  Level FlightAware ADS-B
Mon 08:21:12 PM 41.2927 -95.8029 261° West 431 496 36,000  Level FlightAware ADS-B
Mon 08:21:43 PM 41.2828 -95.8832 261° West 431 496 36,000  Level FlightAware ADS-B
Mon 08:22:17 PM 41.2720 -95.9707 261° West 430 495 36,000  Level FlightAware ADS-B
Mon 08:22:47 PM 41.2622 -96.0494 261° West 430 495 36,000  Level FlightAware ADS-B
Mon 08:23:17 PM 41.2522 -96.1282 260° West 429 494 36,000  Level FlightAware ADS-B
Mon 08:23:47 PM 41.2423 -96.2055 260° West 428 493 36,000  Level FlightAware ADS-B
Mon 08:24:18 PM 41.2323 -96.2847 260° West 427 491 36,000  Level FlightAware ADS-B
Mon 08:24:48 PM 41.2224 -96.3626 260° West 427 491 36,000  Level FlightAware ADS-B
Mon 08:25:18 PM 41.2123 -96.4407 260° West 427 491 36,000  Level FlightAware ADS-B
Mon 08:25:49 PM 41.2022 -96.5184 260° West 426 490 36,000  Level FlightAware ADS-B
Mon 08:26:19 PM 41.1920 -96.5971 260° West 427 491 36,000  Level FlightAware ADS-B
Mon 08:26:50 PM 41.1816 -96.6771 260° West 426 490 36,000  Level FlightAware ADS-B
Mon 08:27:21 PM 41.1713 -96.7554 260° West 425 489 36,000  Level FlightAware ADS-B
Mon 08:27:51 PM 41.1611 -96.8327 260° West 425 489 36,000  Level FlightAware ADS-B
Mon 08:28:21 PM 41.1507 -96.9106 260° West 425 489 36,000  Level FlightAware ADS-B
Mon 08:28:57 PM 41.1386 -97.0014 260° West 425 489 36,000  Level FlightAware ADS-B
Mon 08:29:27 PM 41.1281 -97.0790 260° West 426 490 36,000 197 Level FlightAware ADS-B
Mon 08:29:58 PM 41.1173 -97.1582 260° West 427 491 36,200 727 Climbing FlightAware ADS-B
Mon 08:30:33 PM 41.1052 -97.2480 260° West 425 489 36,800 831 Climbing FlightAware ADS-B
Mon 08:31:03 PM 41.0946 -97.3255 260° West 426 490 37,100 590 Climbing FlightAware ADS-B
Mon 08:31:34 PM 41.0839 -97.4033 260° West 428 493 37,400 590 Climbing FlightAware ADS-B
Mon 08:32:04 PM 41.0729 -97.4824 260° West 429 494 37,700 514 Climbing FlightAware ADS-B
Mon 08:32:44 PM 41.0585 -97.5861 260° West 431 496 38,000 257 Climbing FlightAware ADS-B
Mon 08:33:14 PM 41.0476 -97.6640 260° West 432 497 38,000  Level FlightAware ADS-B
Mon 08:33:45 PM 41.0365 -97.7432 259° West 433 498 38,000  Level FlightAware ADS-B
Mon 08:34:15 PM 41.0253 -97.8219 259° West 432 497 38,000  Level FlightAware ADS-B
Mon 08:34:46 PM 41.0139 -97.9022 259° West 429 494 38,000  Level FlightAware ADS-B
Mon 08:35:27 PM 40.9992 -98.0070 260° West 426 490 38,000  Level FlightAware ADS-B
Mon 08:35:57 PM 40.9909 -98.0847 262° West 425 489 38,000  Level FlightAware ADS-B
Mon 08:36:28 PM 40.9824 -98.1637 262° West 424 488 38,000  Level FlightAware ADS-B
Mon 08:37:15 PM 40.9693 -98.2833 262° West 425 489 38,000  Level FlightAware ADS-B
Mon 08:37:50 PM 40.9595 -98.3732 262° West 426 490 38,000  Level FlightAware ADS-B
Mon 08:38:21 PM 40.9506 -98.4528 262° West 425 489 38,000  Level FlightAware ADS-B
Mon 08:39:28 PM 40.9320 -98.6200 262° West 423 487 38,000  Level FlightAware ADS-B
Mon 08:40:21 PM 40.9161 -98.7606 262° West 421 484 38,000  Level FlightAware ADS-B
Mon 08:40:54 PM 40.9067 -98.8433 261° West 421 484 38,000  Level FlightAware ADS-B
Mon 08:41:24 PM 40.8979 -98.9198 261° West 423 487 38,000  Level FlightAware ADS-B
Mon 08:42:33 PM 40.8790 -99.0840 261° West 426 490 38,000  Level FlightAware ADS-B
Mon 08:43:30 PM 40.8604 -99.2413 261° West 425 489 38,000  Level FlightAware ADS-B
Mon 08:44:03 PM 40.8505 -99.3253 261° West 426 490 38,000  Level FlightAware ADS-B
Mon 08:44:34 PM 40.8409 -99.4061 261° West 427 491 38,000  Level FlightAware ADS-B
Mon 08:45:30 PM 40.8264 -99.5175 261° West 425 489 38,000  Level Denver Center
Mon 08:46:31 PM 40.8083 -99.6719 261° West 425 489 38,000  Level Denver Center
Mon 08:47:45 PM 40.7864 -99.8525 261° West 429 494 38,000  Level Denver Center
Mon 08:48:47 PM 40.7619 -100.0475 261° West 424 488 38,000  Level Denver Center
Mon 08:54:38 PM 40.6473 -100.9360 261° West 415 478 38,000  Level FlightAware ADS-B
Mon 08:55:09 PM 40.6368 -101.0150 260° West 415 478 38,000  Level FlightAware ADS-B
Mon 08:55:40 PM 40.6266 -101.0900 260° West 415 478 38,000  Level FlightAware ADS-B
Mon 08:56:10 PM 40.6165 -101.1650 260° West 414 476 38,000  Level FlightAware ADS-B
Mon 08:56:40 PM 40.6063 -101.2390 260° West 415 478 38,000  Level FlightAware ADS-B
Mon 08:57:11 PM 40.5958 -101.3160 260° West 416 479 38,000  Level FlightAware ADS-B
Mon 08:57:41 PM 40.5854 -101.3920 260° West 416 479 38,000  Level FlightAware ADS-B
Mon 08:58:11 PM 40.5749 -101.4660 259° West 415 478 38,000  Level FlightAware ADS-B
Mon 08:58:42 PM 40.5642 -101.5420 260° West 416 479 38,000  Level FlightAware ADS-B
Mon 08:59:12 PM 40.5532 -101.6180 259° West 417 480 38,000  Level FlightAware ADS-B
Mon 08:59:43 PM 40.5423 -101.6950 259° West 420 483 38,000  Level FlightAware ADS-B
Mon 09:00:14 PM 40.5321 -101.7710 260° West 420 483 38,000  Level FlightAware ADS-B
Mon 09:00:44 PM 40.5217 -101.8470 260° West 421 484 38,000  Level FlightAware ADS-B
Mon 09:01:14 PM 40.5109 -101.9220 259° West 422 486 38,000  Level FlightAware ADS-B
Mon 09:01:22 PM 40.5083 -101.9410 260° West 421 484 38,000  Level FlightAware ADS-B
Mon 09:01:47 PM 40.5022 -102.0050 263° West 422 486 38,000  Level FlightAware ADS-B
Mon 09:02:17 PM 40.5015 -102.0830 269° West 422 486 38,000  Level FlightAware ADS-B
Mon 09:02:48 PM 40.5023 -102.1620 271° West 422 486 38,000  Level FlightAware ADS-B
Mon 09:03:18 PM 40.5035 -102.2390 271° West 424 488 38,000  Level FlightAware ADS-B
Mon 09:03:49 PM 40.5049 -102.3180 271° West 424 488 38,000  Level FlightAware ADS-B
Mon 09:04:19 PM 40.5061 -102.3960 271° West 424 488 38,000  Level FlightAware ADS-B
Mon 09:04:50 PM 40.5072 -102.4740 271° West 426 490 38,000  Level FlightAware ADS-B
Mon 09:05:21 PM 40.5082 -102.5550 271° West 427 491 38,000  Level FlightAware ADS-B
Mon 09:05:51 PM 40.5091 -102.6340 271° West 426 490 38,000  Level FlightAware ADS-B
Mon 09:06:24 PM 40.5103 -102.7180 271° West 424 488 38,000  Level FlightAware ADS-B
Mon 09:06:54 PM 40.5112 -102.7950 271° West 423 487 38,000  Level FlightAware ADS-B
Mon 09:07:25 PM 40.5119 -102.8730 271° West 424 488 38,000  Level FlightAware ADS-B
Mon 09:07:55 PM 40.5125 -102.9510 271° West 423 487 38,000  Level FlightAware ADS-B
Mon 09:08:26 PM 40.5130 -103.0290 271° West 424 488 38,000  Level FlightAware ADS-B
Mon 09:08:56 PM 40.5137 -103.1070 271° West 424 488 38,000  Level FlightAware ADS-B
Mon 09:09:27 PM 40.5145 -103.1860 271° West 425 489 38,000  Level FlightAware ADS-B
Mon 09:09:57 PM 40.5148 -103.2640 270° West 423 487 38,000  Level FlightAware ADS-B
Mon 09:10:27 PM 40.5153 -103.3410 271° West 424 488 38,000  Level FlightAware ADS-B
Mon 09:10:58 PM 40.5159 -103.4200 271° West 424 488 38,000  Level FlightAware ADS-B
Mon 09:11:28 PM 40.5164 -103.4970 271° West 422 486 38,000  Level FlightAware ADS-B
Mon 09:11:58 PM 40.5166 -103.5740 270° West 422 486 38,000  Level FlightAware ADS-B
Mon 09:12:30 PM 40.5169 -103.6550 270° West 419 482 38,000  Level FlightAware ADS-B
Mon 09:13:00 PM 40.5170 -103.7320 270° West 418 481 38,000  Level FlightAware ADS-B
Mon 09:13:31 PM 40.5171 -103.8100 270° West 419 482 38,000  Level FlightAware ADS-B
Mon 09:14:04 PM 40.5172 -103.8930 270° West 419 482 38,000  Level FlightAware ADS-B
Mon 09:14:34 PM 40.5173 -103.9700 270° West 417 480 38,000  Level FlightAware ADS-B
Mon 09:15:04 PM 40.5172 -104.0470 270° West 417 480 38,000  Level FlightAware ADS-B
Mon 09:15:34 PM 40.5171 -104.1220 270° West 418 481 38,000  Level FlightAware ADS-B
Mon 09:16:04 PM 40.5171 -104.1980 270° West 417 480 38,000  Level FlightAware ADS-B
Mon 09:16:35 PM 40.5170 -104.2760 270° West 417 480 38,000  Level FlightAware ADS-B
Mon 09:17:05 PM 40.5167 -104.3510 270° West 417 480 38,000  Level FlightAware ADS-B
Mon 09:17:35 PM 40.5163 -104.4280 270° West 417 480 38,000  Level FlightAware ADS-B
Mon 09:18:05 PM 40.5161 -104.5040 270° West 420 483 38,000  Level FlightAware ADS-B
Mon 09:18:35 PM 40.5157 -104.5820 270° West 421 484 38,000  Level FlightAware ADS-B
Mon 09:19:07 PM 40.5152 -104.6610 270° West 420 483 38,000  Level FlightAware ADS-B
Mon 09:19:37 PM 40.5149 -104.7380 270° West 421 484 38,000  Level FlightAware ADS-B
Mon 09:20:21 PM 40.5141 -104.8520 270° West 425 489 38,000  Level FlightAware ADS-B
Mon 09:20:53 PM 40.5135 -104.9350 269° West 428 493 38,000  Level FlightAware ADS-B
Mon 09:21:24 PM 40.5129 -105.0140 269° West 427 491 38,000  Level FlightAware ADS-B
Mon 09:21:54 PM 40.5121 -105.0930 269° West 425 489 38,000  Level FlightAware ADS-B
Mon 09:22:26 PM 40.5112 -105.1730 269° West 420 483 38,000  Level FlightAware ADS-B
Mon 09:22:57 PM 40.5103 -105.2520 269° West 415 478 38,000  Level FlightAware ADS-B
Mon 09:23:29 PM 40.5097 -105.3320 269° West 404 465 38,000  Level FlightAware ADS-B
Mon 09:24:01 PM 40.5087 -105.4090 269° West 403 464 38,000  Level FlightAware ADS-B
Mon 09:24:34 PM 40.5077 -105.4890 269° West 400 460 38,000  Level FlightAware ADS-B
Mon 09:25:15 PM 40.5064 -105.5880 269° West 401 461 38,000  Level FlightAware ADS-B
Mon 09:25:59 PM 40.5050 -105.6930 269° West 400 460 38,000  Level FlightAware ADS-B
Mon 09:26:39 PM 40.5030 -105.7890 268° West 403 464 38,000  Level FlightAware ADS-B
Mon 09:26:55 PM 40.5027 -105.8320 269° West 402 463 38,000  Level FlightAware ADS-B
Mon 09:28:01 PM 40.5001 -105.9950 269° West 413 475 38,000  Level FlightAware ADS-B
Mon 09:29:03 PM 40.5020 -106.1370 271° West 414 476 38,000  Level FlightAware ADS-B
Mon 09:29:40 PM 40.5040 -106.2390 272° West 412 474 38,000  Level FlightAware ADS-B
Mon 09:30:23 PM 40.5060 -106.3490 271° West 412 474 38,000  Level FlightAware ADS-B
Mon 09:31:04 PM 40.5070 -106.4520 271° West 411 473 38,000  Level FlightAware ADS-B
Mon 09:31:48 PM 40.5080 -106.5610 271° West 411 473 38,000  Level FlightAware ADS-B
Mon 09:32:28 PM 40.5100 -106.6570 272° West 408 470 38,000  Level FlightAware ADS-B
Mon 09:33:13 PM 40.5110 -106.7720 271° West 409 471 38,000  Level FlightAware ADS-B
Mon 09:33:56 PM 40.5120 -106.8760 271° West 410 472 38,000  Level FlightAware ADS-B
Mon 09:34:36 PM 40.5130 -106.9770 271° West 410 472 38,000  Level FlightAware ADS-B
Mon 09:35:20 PM 40.5140 -107.0880 271° West 410 472 38,000  Level FlightAware ADS-B
Mon 09:36:02 PM 40.5140 -107.1910 270° West 411 473 38,000  Level FlightAware ADS-B
Mon 09:36:41 PM 40.5150 -107.2880 271° West 412 474 38,000  Level FlightAware ADS-B
Mon 09:37:17 PM 40.5160 -107.3780 271° West 411 473 38,000  Level FlightAware ADS-B
Mon 09:38:08 PM 40.5160 -107.5050 270° West 411 473 38,000  Level FlightAware ADS-B
Mon 09:38:45 PM 40.5160 -107.5970 270° West 410 472 38,000  Level FlightAware ADS-B
Mon 09:39:25 PM 40.5170 -107.6910 271° West 409 471 38,000  Level FlightAware ADS-B
Mon 09:40:10 PM 40.5170 -107.8040 270° West 408 470 38,000  Level FlightAware ADS-B
Mon 09:40:52 PM 40.5170 -107.9080 270° West 407 468 38,000  Level FlightAware ADS-B
Mon 09:41:37 PM 40.5170 -108.0190 270° West 403 464 38,000  Level FlightAware ADS-B
Mon 09:42:15 PM 40.5170 -108.1140 270° West 401 461 38,000  Level FlightAware ADS-B
Mon 09:43:00 PM 40.5170 -108.2250 270° West 401 461 38,000  Level FlightAware ADS-B
Mon 09:43:41 PM 40.5170 -108.3210 270° West 403 464 38,000  Level FlightAware ADS-B
Mon 09:44:23 PM 40.5170 -108.4240 270° West 404 465 38,000  Level FlightAware ADS-B
Mon 09:45:06 PM 40.5160 -108.5320 269° West 405 466 38,000  Level FlightAware ADS-B
Mon 09:45:47 PM 40.5160 -108.6310 270° West 406 467 38,000  Level FlightAware ADS-B
Mon 09:46:32 PM 40.5150 -108.7450 269° West 407 468 38,000  Level FlightAware ADS-B
Mon 09:47:11 PM 40.5140 -108.8390 269° West 408 470 38,000  Level FlightAware ADS-B
Mon 09:47:47 PM 40.5140 -108.9260 270° West 410 472 38,000  Level FlightAware ADS-B
Mon 09:48:27 PM 40.5130 -109.0280 269° West 411 473 38,000  Level FlightAware ADS-B
Mon 09:49:11 PM 40.5120 -109.1350 269° West 409 471 38,000  Level FlightAware ADS-B
Mon 09:49:47 PM 40.5110 -109.2270 269° West 408 470 38,000  Level FlightAware ADS-B
Mon 09:50:30 PM 40.5090 -109.3330 269° West 407 468 38,000  Level FlightAware ADS-B
Mon 09:51:10 PM 40.5080 -109.4330 269° West 406 467 38,000  Level FlightAware ADS-B
Mon 09:51:51 PM 40.5070 -109.5320 269° West 404 465 38,000  Level FlightAware ADS-B
Mon 09:52:36 PM 40.5060 -109.6430 269° West 404 465 38,000  Level FlightAware ADS-B
Mon 09:53:15 PM 40.5040 -109.7360 268° West 406 467 38,000  Level FlightAware ADS-B
Mon 09:53:57 PM 40.5030 -109.8400 269° West 407 468 38,000  Level FlightAware ADS-B
Mon 09:54:34 PM 40.5010 -109.9330 268° West 407 468 38,000  Level FlightAware ADS-B
Mon 09:55:00 PM 40.5004 -109.9980 269° West 407 468 38,000  Level FlightAware ADS-B
Mon 09:55:36 PM 40.5066 -110.0870 275° West 407 468 38,000  Level FlightAware ADS-B
Mon 09:56:07 PM 40.5123 -110.1610 276° West 405 466 38,000  Level FlightAware ADS-B
Mon 09:56:37 PM 40.5178 -110.2350 276° West 404 465 38,000  Level FlightAware ADS-B
Mon 09:57:07 PM 40.5232 -110.3080 276° West 402 463 38,000  Level FlightAware ADS-B
Mon 09:57:38 PM 40.5286 -110.3820 276° West 401 461 38,000  Level FlightAware ADS-B
Mon 09:58:09 PM 40.5341 -110.4570 276° West 403 464 38,000  Level FlightAware ADS-B
Mon 09:58:39 PM 40.5395 -110.5310 276° West 404 465 38,000  Level FlightAware ADS-B
Mon 09:59:09 PM 40.5448 -110.6040 275° West 404 465 38,000  Level FlightAware ADS-B
Mon 09:59:40 PM 40.5500 -110.6780 275° West 405 466 38,000  Level FlightAware ADS-B
Mon 10:00:10 PM 40.5552 -110.7520 275° West 405 466 38,000  Level FlightAware ADS-B
Mon 10:00:41 PM 40.5604 -110.8270 275° West 405 466 38,000  Level FlightAware ADS-B
Mon 10:01:11 PM 40.5654 -110.9010 275° West 405 466 38,000  Level FlightAware ADS-B
Mon 10:01:42 PM 40.5706 -110.9760 275° West 405 466 38,000  Level FlightAware ADS-B
Mon 10:02:12 PM 40.5757 -111.0520 275° West 404 465 38,000  Level FlightAware ADS-B
Mon 10:02:43 PM 40.5806 -111.1250 275° West 403 464 38,000  Level FlightAware ADS-B
Mon 10:03:13 PM 40.5855 -111.1980 275° West 401 461 38,000  Level FlightAware ADS-B
Mon 10:03:46 PM 40.5907 -111.2790 275° West 401 461 38,000  Level FlightAware ADS-B
Mon 10:04:16 PM 40.5956 -111.3530 275° West 400 460 38,000  Level FlightAware ADS-B
Mon 10:04:47 PM 40.6003 -111.4250 275° West 398 458 38,000  Level FlightAware ADS-B
Mon 10:05:17 PM 40.6051 -111.4990 275° West 395 455 38,000  Level FlightAware ADS-B
Mon 10:05:48 PM 40.6096 -111.5720 275° West 396 456 38,000  Level FlightAware ADS-B
Mon 10:06:18 PM 40.6141 -111.6450 275° West 400 460 38,000  Level FlightAware ADS-B
Mon 10:06:49 PM 40.6187 -111.7190 275° West 401 461 38,000  Level FlightAware ADS-B
Mon 10:07:20 PM 40.6233 -111.7940 275° West 399 459 38,000  Level FlightAware ADS-B
Mon 10:07:52 PM 40.6280 -111.8710 275° West 397 457 38,000  Level FlightAware ADS-B
Mon 10:08:22 PM 40.6324 -111.9440 275° West 396 456 38,000  Level FlightAware ADS-B
Mon 10:08:53 PM 40.6368 -112.0180 275° West 399 459 38,000  Level FlightAware ADS-B
Mon 10:09:24 PM 40.6412 -112.0940 274° West 402 463 38,000  Level FlightAware ADS-B
Mon 10:09:54 PM 40.6455 -112.1670 274° West 403 464 38,000  Level FlightAware ADS-B
Mon 10:10:24 PM 40.6497 -112.2410 274° West 403 464 38,000  Level FlightAware ADS-B
Mon 10:10:55 PM 40.6539 -112.3150 274° West 403 464 38,000  Level FlightAware ADS-B
Mon 10:11:25 PM 40.6580 -112.3880 274° West 401 461 38,000  Level FlightAware ADS-B
Mon 10:11:55 PM 40.6621 -112.4620 274° West 401 461 38,000  Level FlightAware ADS-B
Mon 10:12:26 PM 40.6661 -112.5360 274° West 398 458 38,000  Level FlightAware ADS-B
Mon 10:12:56 PM 40.6700 -112.6090 274° West 397 457 38,000  Level FlightAware ADS-B
Mon 10:13:26 PM 40.6739 -112.6820 274° West 398 458 38,000  Level FlightAware ADS-B
Mon 10:14:03 PM 40.6785 -112.7690 274° West 400 460 38,000  Level FlightAware ADS-B
Mon 10:14:32 PM 40.6823 -112.8400 274° West 398 458 38,000  Level FlightAware ADS-B
Mon 10:15:02 PM 40.6861 -112.9130 274° West 397 457 38,000  Level FlightAware ADS-B
Mon 10:15:32 PM 40.6897 -112.9850 274° West 399 459 38,000  Level FlightAware ADS-B
Mon 10:16:04 PM 40.6935 -113.0620 274° West 399 459 38,000  Level FlightAware ADS-B
Mon 10:16:34 PM 40.6972 -113.1350 274° West 399 459 38,000  Level FlightAware ADS-B
Mon 10:17:08 PM 40.7000 -113.2180 273° West 399 459 38,000  Level FlightAware ADS-B
Mon 10:17:39 PM 40.6944 -113.2900 264° West 394 453 38,000  Level FlightAware ADS-B
Mon 10:18:12 PM 40.6877 -113.3680 264° West 395 455 38,000  Level FlightAware ADS-B
Mon 10:18:42 PM 40.6816 -113.4410 264° West 395 455 38,000  Level FlightAware ADS-B
Mon 10:19:12 PM 40.6753 -113.5130 263° West 395 455 38,000  Level FlightAware ADS-B
Mon 10:19:47 PM 40.6681 -113.5960 264° West 396 456 38,000  Level FlightAware ADS-B
Mon 10:20:17 PM 40.6619 -113.6680 264° West 396 456 38,000  Level FlightAware ADS-B
Mon 10:20:47 PM 40.6555 -113.7410 263° West 396 456 38,000  Level FlightAware ADS-B
Mon 10:21:18 PM 40.6491 -113.8130 263° West 398 458 38,000  Level FlightAware ADS-B
Mon 10:21:56 PM 40.6408 -113.9060 263° West 400 460 38,000  Level FlightAware ADS-B
Mon 10:22:28 PM 40.6338 -113.9830 263° West 399 459 38,000  Level FlightAware ADS-B
Mon 10:22:59 PM 40.6273 -114.0570 263° West 396 456 38,000  Level FlightAware ADS-B
Mon 10:23:30 PM 40.6206 -114.1300 263° West 397 457 38,000  Level FlightAware ADS-B
Mon 10:24:02 PM 40.6136 -114.2060 263° West 399 459 38,000  Level FlightAware ADS-B
Mon 10:25:16 PM 40.5969 -114.3840 263° West 399 459 38,000  Level FlightAware ADS-B
Mon 10:25:46 PM 40.5900 -114.4580 263° West 402 463 38,000  Level FlightAware ADS-B
Mon 10:26:16 PM 40.5830 -114.5320 263° West 402 463 38,000  Level FlightAware ADS-B
Mon 10:26:47 PM 40.5759 -114.6070 263° West 400 460 38,000  Level FlightAware ADS-B
Mon 10:27:18 PM 40.5689 -114.6800 263° West 395 455 38,000  Level FlightAware ADS-B
Mon 10:27:56 PM 40.5605 -114.7690 263° West 394 453 38,000  Level FlightAware ADS-B
Mon 10:30:23 PM 40.5261 -115.1150 263° West 390 449 38,000  Level FlightAware ADS-B
Mon 10:30:53 PM 40.5189 -115.1870 263° West 390 449 38,000  Level FlightAware ADS-B
Mon 10:31:23 PM 40.5118 -115.2580 263° West 390 449 38,000  Level FlightAware ADS-B
Mon 10:31:57 PM 40.5038 -115.3370 262° West 390 449 38,000  Level FlightAware ADS-B
Mon 10:32:28 PM 40.4964 -115.4080 262° West 390 449 38,000  Level FlightAware ADS-B
Mon 10:33:09 PM 40.4911 -115.5089 262° West 393 452 38,000  Level Oakland Center
Mon 10:33:51 PM 40.4758 -115.5819 255° West 389 448 38,000  Level Salt Lake Center
Mon 10:34:53 PM 40.4608 -115.7261 262° West 396 456 38,000  Level Salt Lake Center
Mon 10:35:54 PM 40.4458 -115.8697 262° West 398 458 38,000  Level Salt Lake Center
Mon 10:36:56 PM 40.4303 -116.0131 262° West 398 458 38,000  Level Salt Lake Center
Mon 10:37:57 PM 40.4117 -116.1828 262° West 397 457 38,000  Level Salt Lake Center
Mon 10:38:59 PM 40.3992 -116.3061 262° West 399 459 38,000  Level Salt Lake Center
Mon 10:40:00 PM 40.3797 -116.4750 261° West 394 453 38,000  Level Salt Lake Center
Mon 10:41:02 PM 40.3647 -116.6169 262° West 393 452 38,000  Level Salt Lake Center
Mon 10:42:03 PM 40.3481 -116.7569 261° West 391 450 38,000 -98 Level Salt Lake Center
Mon 10:43:05 PM 40.3317 -116.8975 261° West 391 450 37,800 -585 Descending Salt Lake Center
Mon 10:44:06 PM 40.3156 -117.0414 262° West 395 455 36,800 -927 Descending Salt Lake Center
Mon 10:45:08 PM 40.2992 -117.1853 262° West 399 459 35,900 -520 Descending Salt Lake Center
Mon 10:50:27 PM 40.0300 -117.9080 262° West 409 471 33,500 -507 Descending FlightAware ADS-B
Mon 10:51:03 PM 39.9970 -117.9830 240° Southwest 413 475 32,900 -951 Descending FlightAware ADS-B
Mon 10:51:49 PM 39.9530 -118.0860 241° Southwest 419 482 32,200 -1,133 Descending FlightAware ADS-B
Mon 10:52:33 PM 39.9120 -118.1830 241° Southwest 423 487 31,200 -1,683 Descending FlightAware ADS-B
Mon 10:53:11 PM 39.8750 -118.2680 240° Southwest 428 493 29,900 -2,047 Descending FlightAware ADS-B
Mon 10:53:58 PM 39.8310 -118.3700 241° Southwest 419 482 28,300 -2,023 Descending FlightAware ADS-B
Mon 10:54:37 PM 39.7930 -118.4550 240° Southwest 412 474 27,000 -2,024 Descending FlightAware ADS-B
Mon 10:55:21 PM 39.7520 -118.5500 241° Southwest 410 472 25,500 -2,000 Descending FlightAware ADS-B
Mon 10:56:01 PM 39.7150 -118.6350 241° Southwest 400 460 24,200 -1,976 Descending FlightAware ADS-B
Mon 10:56:43 PM 39.6770 -118.7210 240° Southwest 393 452 22,800 -2,049 Descending FlightAware ADS-B
Mon 10:57:23 PM 39.6410 -118.8030 240° Southwest 390 449 21,400 -2,100 Descending FlightAware ADS-B
Mon 10:58:03 PM 39.6060 -118.8840 241° Southwest 383 441 20,000 -2,049 Descending FlightAware ADS-B
Mon 10:58:45 PM 39.5690 -118.9660 240° Southwest 378 435 18,600 -2,000 Descending FlightAware ADS-B
Mon 10:59:21 PM 39.5380 -119.0360 240° Southwest 371 427 17,400 -1,974 Descending FlightAware ADS-B
Mon 11:00:01 PM 39.5050 -119.1110 240° Southwest 367 422 16,100 -1,111 Descending FlightAware ADS-B
Mon 11:00:42 PM 39.4710 -119.1860 240° Southwest 359 413 15,900 -225 Descending FlightAware ADS-B
Mon 11:01:21 PM 39.4380 -119.2610 240° Southwest 353 406 15,800 -1,012 Descending FlightAware ADS-B
Mon 11:02:05 PM 39.4030 -119.3410 241° Southwest 345 397 14,500 -1,841 Descending FlightAware ADS-B
Mon 11:02:49 PM 39.3670 -119.4200 240° Southwest 345 397 13,100 -1,953 Descending FlightAware ADS-B
Mon 11:03:31 PM 39.3330 -119.4930 239° Southwest 345 397 11,700 -1,976 Descending FlightAware ADS-B
Mon 11:04:11 PM 39.2990 -119.5640 238° Southwest 341 392 10,400 -1,676 Descending FlightAware ADS-B
Mon 11:04:39 PM 39.2770 -119.6120 239° Southwest 330 380 9,800 -643 Descending FlightAware ADS-B
Mon 11:05:07 PM 39.2570 -119.6570 240° Southwest 298 343 9,800  Level FlightAware ADS-B
Mon 11:05:23 PM 39.2520 -119.6830 256° West 285 328 9,800 -143 Level FlightAware ADS-B
Mon 11:05:49 PM 39.2510 -119.7260 268° West 268 308 9,700 -556 Descending FlightAware ADS-B
Mon 11:06:17 PM 39.2680 -119.7620 301° West 262 302 9,300 -808 Descending FlightAware ADS-B
Mon 11:06:41 PM 39.2940 -119.7740 340° North 256 295 9,000 -545 Descending FlightAware ADS-B
Mon 11:07:01 PM 39.3170 -119.7700 North 243 280 8,900 -783 Descending FlightAware ADS-B
Mon 11:07:27 PM 39.3460 -119.7670 North 225 259 8,400 -1,179 Descending FlightAware ADS-B
Mon 11:07:57 PM 39.3750 -119.7700 355° North 206 237 7,800 -1,406 Descending FlightAware ADS-B
Mon 11:08:31 PM 39.4050 -119.7640 North 186 214 6,900 -1,846 Descending FlightAware ADS-B
Mon 11:09:02 PM 39.4300 -119.7750 341° North 191 220 5,800 -1,964 Descending FlightAware ADS-B
Mon 11:09:26 PM 39.4510 -119.7690 12° North 184 212 5,100 -1,500 Descending FlightAware ADS-B
Mon 11:09:54 PM 39.4740 -119.7690 360° North 167 192 4,500 -1,286 Descending FlightAware ADS-B
Mon 11:10:22 PM 39.4950 -119.7690 360° North 150 173 -9,643 Descending FlightAware ADS-B
Mon 11:10:49 PM 39.5070 -119.7690 360° North 74 85  Level FlightAware ADS-B
Mon 11:11:28 PM 39.5110 -119.7710 339° North 28 32  Level FlightAware ADS-B

Login

Don't have an account? Register now (free) for customized features, flight alerts, and more!